Details From ESSA - Stockholm Arlanda
To TNCM - St Maarten - Princess Juliana Intl
Flight Number -
Tags Decoded
Created
Modified
Stats Distance 4,432 nm / 8,207 km
Max Altitude 0 ft / 0 m
Waypoints 3
Social Downloads 0
Likes 0
Share VATSIM

Download

Looking for another format? Having issues loading an existing format? Contact us
Advertisement - Login to hide

Notes

Decoded

Route

ESSA LPAZ TNCM

ID Type Via Altitude Latitude Longitude Leg Dist Tot Dist Heading (true) Name
O ESSA APT - 0 ft / 0 m 59.62640˚ 17.95074˚ - 0 nm - -
LPAZ APT - 0 ft / 0 m 36.97389˚ -25.17583˚ 2134 nm 2134 nm 250° / 216° -
O TNCM APT - 0 ft / 0 m 18.03937˚ -63.11961˚ 2297 nm 4431 nm 251° / 233° -

Altitude Profile

Advertisement - Login to hide

Weather


0- 5 10 15 20 25 30 35+ Temperature / ° C

Clouds and Precipitation
Forecast for 2017-12-13 00:00 UTC. Updated an hour ago

Ground ~20,000 ft ~40,000 ft Winds

ESSA

Details ICAO ESSA (ARN)
Name Stockholm Arlanda
Region Sweden
Timezone Europe/Stockholm (UTC+1.0)
Stats Elevation 137 ft / 42 m (AMSL)
Location 59.650140° 17.943628°
Runways 3
Magnetic Variation 6.100° E

METAR

ESSA 122350Z 26007KT CAVOK M06/M07 Q0995 R01L/520175 R01R/520178 R08/520172 NOSIG

Decode

TAF

TAF ESSA 122330Z 1300/1324 26008KT CAVOK BECMG 1308/1310 20010KT PROB40 1309/1313 BKN006 BECMG 1322/1324 RASN

Decode

Departure Runways

ID Width Length Bearing (true) Bearing (mag) Surface Threshold Offset Overrun Length
01L 148 ft / 45 m 10,812 ft / 3,296 m 10.35° 4.25° Concrete 0 ft / 0 m 0 ft / 0 m
01R 148 ft / 45 m 8,188 ft / 2,496 m 10.38° 4.28° Asphalt 0 ft / 0 m 0 ft / 0 m
08 148 ft / 45 m 8,178 ft / 2,493 m 75.83° 69.73° Concrete 0 ft / 0 m 0 ft / 0 m
19L 148 ft / 45 m 8,188 ft / 2,496 m 190.39° 184.29° Asphalt 0 ft / 0 m 0 ft / 0 m
19R 148 ft / 45 m 10,812 ft / 3,296 m 190.36° 184.26° Concrete 0 ft / 0 m 0 ft / 0 m
26 148 ft / 45 m 8,178 ft / 2,493 m 255.87° 249.77° Concrete 0 ft / 0 m 0 ft / 0 m

TNCM

Details ICAO TNCM (SXM)
Name St Maarten - Princess Juliana Intl
Region Caribbean Netherlands, Aruba, Curaçao, Sint Maarten
Timezone Unknown (UTC+0.0)
Stats Elevation 12 ft / 4 m (AMSL)
Location 18.040889° -63.108974°
Runways 1
Magnetic Variation 14.325° W

METAR

TNCM 130000Z 13004KT 090V170 CAVOK 27/21 Q1014 A2996 NOSIG

Decode

TAF

TAF TNCM 122320Z 1300/1324 13007KT P6SM FEW020 FM131500 15008KT P6SM SCT030

Decode

Destination Runways

ID Width Length Bearing (true) Bearing (mag) Surface Threshold Offset Overrun Length
10 148 ft / 45 m 7,464 ft / 2,275 m 81.43° 95.75° Asphalt 0 ft / 0 m 151 ft / 46 m
28 148 ft / 45 m 7,464 ft / 2,275 m 261.44° 275.76° Asphalt 397 ft / 121 m 0 ft / 0 m

Popular Alternatives